sensor_id;sensor_type;location;lat;lon;timestamp;P1;durP1;ratioP1;P2;durP2;ratioP2
47603;SDS011;33326;51.116;6.900;2023-04-25T00:01:56;11.65;;;5.25;;
47603;SDS011;33326;51.116;6.900;2023-04-25T00:06:59;16.17;;;5.88;;
47603;SDS011;33326;51.116;6.900;2023-04-25T00:12:04;14.88;;;5.68;;
47603;SDS011;33326;51.116;6.900;2023-04-25T00:17:06;12.57;;;5.80;;
47603;SDS011;33326;51.116;6.900;2023-04-25T00:22:08;17.13;;;5.30;;
47603;SDS011;33326;51.116;6.900;2023-04-25T00:27:11;17.33;;;6.20;;
47603;SDS011;33326;51.116;6.900;2023-04-25T00:32:13;17.63;;;6.22;;
47603;SDS011;33326;51.116;6.900;2023-04-25T00:37:15;21.75;;;6.80;;
47603;SDS011;33326;51.116;6.900;2023-04-25T00:42:19;17.10;;;6.22;;
47603;SDS011;33326;51.116;6.900;2023-04-25T00:47:22;18.85;;;6.82;;
47603;SDS011;33326;51.116;6.900;2023-04-25T00:52:24;18.77;;;7.05;;
47603;SDS011;33326;51.116;6.900;2023-04-25T00:57:28;17.15;;;5.93;;
47603;SDS011;33326;51.116;6.900;2023-04-25T01:02:30;16.52;;;5.72;;
47603;SDS011;33326;51.116;6.900;2023-04-25T01:07:32;19.33;;;6.03;;
47603;SDS011;33326;51.116;6.900;2023-04-25T01:12:37;16.40;;;6.25;;
47603;SDS011;33326;51.116;6.900;2023-04-25T01:17:39;19.10;;;6.68;;
47603;SDS011;33326;51.116;6.900;2023-04-25T01:22:44;17.10;;;6.55;;
47603;SDS011;33326;51.116;6.900;2023-04-25T01:27:46;16.00;;;6.07;;
47603;SDS011;33326;51.116;6.900;2023-04-25T01:32:48;20.52;;;6.10;;
47603;SDS011;33326;51.116;6.900;2023-04-25T01:37:52;17.67;;;5.75;;
47603;SDS011;33326;51.116;6.900;2023-04-25T01:42:54;15.88;;;5.68;;
47603;SDS011;33326;51.116;6.900;2023-04-25T01:47:56;17.10;;;5.70;;
47603;SDS011;33326;51.116;6.900;2023-04-25T01:53:00;15.38;;;6.28;;
47603;SDS011;33326;51.116;6.900;2023-04-25T01:58:03;16.27;;;5.53;;
47603;SDS011;33326;51.116;6.900;2023-04-25T02:03:38;18.50;;;6.30;;
47603;SDS011;33326;51.116;6.900;2023-04-25T02:08:46;15.85;;;6.05;;
47603;SDS011;33326;51.116;6.900;2023-04-25T02:13:49;13.45;;;5.22;;
47603;SDS011;33326;51.116;6.900;2023-04-25T02:19:17;20.15;;;5.95;;
47603;SDS011;33326;51.116;6.900;2023-04-25T02:24:22;16.20;;;5.75;;
47603;SDS011;33326;51.116;6.900;2023-04-25T02:29:24;14.50;;;5.72;;
47603;SDS011;33326;51.116;6.900;2023-04-25T02:34:26;17.98;;;5.72;;
47603;SDS011;33326;51.116;6.900;2023-04-25T02:39:29;12.45;;;5.25;;
47603;SDS011;33326;51.116;6.900;2023-04-25T02:44:31;15.88;;;5.72;;
47603;SDS011;33326;51.116;6.900;2023-04-25T02:49:33;11.82;;;5.05;;
47603;SDS011;33326;51.116;6.900;2023-04-25T02:54:36;17.95;;;5.43;;
47603;SDS011;33326;51.116;6.900;2023-04-25T02:59:39;12.52;;;4.28;;
47603;SDS011;33326;51.116;6.900;2023-04-25T03:04:40;9.93;;;4.38;;
47603;SDS011;33326;51.116;6.900;2023-04-25T03:09:44;10.95;;;4.35;;
47603;SDS011;33326;51.116;6.900;2023-04-25T03:14:46;13.05;;;4.47;;
47603;SDS011;33326;51.116;6.900;2023-04-25T03:19:49;10.20;;;4.53;;
47603;SDS011;33326;51.116;6.900;2023-04-25T03:24:53;11.52;;;4.32;;
47603;SDS011;33326;51.116;6.900;2023-04-25T03:29:54;11.02;;;5.47;;
47603;SDS011;33326;51.116;6.900;2023-04-25T03:34:56;14.88;;;4.95;;
47603;SDS011;33326;51.116;6.900;2023-04-25T03:40:02;9.75;;;4.70;;
47603;SDS011;33326;51.116;6.900;2023-04-25T03:45:24;17.13;;;6.03;;
47603;SDS011;33326;51.116;6.900;2023-04-25T03:50:26;10.30;;;5.22;;
47603;SDS011;33326;51.116;6.900;2023-04-25T03:55:30;16.52;;;5.35;;
47603;SDS011;33326;51.116;6.900;2023-04-25T04:00:32;13.65;;;5.72;;
47603;SDS011;33326;51.116;6.900;2023-04-25T04:05:34;15.77;;;6.15;;
47603;SDS011;33326;51.116;6.900;2023-04-25T04:10:38;15.88;;;5.93;;
47603;SDS011;33326;51.116;6.900;2023-04-25T04:15:41;18.45;;;6.20;;
47603;SDS011;33326;51.116;6.900;2023-04-25T04:20:43;15.05;;;6.07;;
47603;SDS011;33326;51.116;6.900;2023-04-25T04:25:47;18.10;;;5.93;;
47603;SDS011;33326;51.116;6.900;2023-04-25T04:31:02;16.55;;;6.40;;
47603;SDS011;33326;51.116;6.900;2023-04-25T04:36:04;21.67;;;7.18;;
47603;SDS011;33326;51.116;6.900;2023-04-25T04:41:09;17.30;;;6.38;;
47603;SDS011;33326;51.116;6.900;2023-04-25T04:46:34;21.23;;;6.20;;
47603;SDS011;33326;51.116;6.900;2023-04-25T04:52:01;22.42;;;6.03;;
47603;SDS011;33326;51.116;6.900;2023-04-25T04:57:11;19.08;;;5.80;;
47603;SDS011;33326;51.116;6.900;2023-04-25T05:02:39;23.23;;;6.47;;
47603;SDS011;33326;51.116;6.900;2023-04-25T05:08:01;20.63;;;5.97;;
47603;SDS011;33326;51.116;6.900;2023-04-25T05:13:24;19.98;;;5.95;;
47603;SDS011;33326;51.116;6.900;2023-04-25T05:18:45;23.55;;;6.40;;
47603;SDS011;33326;51.116;6.900;2023-04-25T05:24:11;20.95;;;5.80;;
47603;SDS011;33326;51.116;6.900;2023-04-25T05:29:33;19.10;;;6.57;;
47603;SDS011;33326;51.116;6.900;2023-04-25T05:34:46;20.48;;;6.10;;
47603;SDS011;33326;51.116;6.900;2023-04-25T05:40:01;23.63;;;6.05;;
47603;SDS011;33326;51.116;6.900;2023-04-25T05:45:37;18.98;;;5.80;;
47603;SDS011;33326;51.116;6.900;2023-04-25T05:50:56;21.33;;;6.03;;
47603;SDS011;33326;51.116;6.900;2023-04-25T05:56:18;26.65;;;5.80;;
47603;SDS011;33326;51.116;6.900;2023-04-25T06:01:24;16.88;;;5.82;;
47603;SDS011;33326;51.116;6.900;2023-04-25T06:06:26;22.20;;;5.97;;
47603;SDS011;33326;51.116;6.900;2023-04-25T06:11:28;20.85;;;5.80;;
47603;SDS011;33326;51.116;6.900;2023-04-25T06:16:31;26.20;;;6.90;;
47603;SDS011;33326;51.116;6.900;2023-04-25T06:21:33;21.25;;;6.20;;
47603;SDS011;33326;51.116;6.900;2023-04-25T06:26:35;14.95;;;5.30;;
47603;SDS011;33326;51.116;6.900;2023-04-25T06:31:39;18.30;;;6.03;;
47603;SDS011;33326;51.116;6.900;2023-04-25T06:36:41;18.58;;;5.60;;
47603;SDS011;33326;51.116;6.900;2023-04-25T06:41:48;22.20;;;5.55;;
47603;SDS011;33326;51.116;6.900;2023-04-25T06:47:11;23.02;;;6.38;;
47603;SDS011;33326;51.116;6.900;2023-04-25T06:52:15;21.83;;;5.57;;
47603;SDS011;33326;51.116;6.900;2023-04-25T06:57:18;25.75;;;5.85;;
47603;SDS011;33326;51.116;6.900;2023-04-25T07:02:21;22.23;;;5.70;;
47603;SDS011;33326;51.116;6.900;2023-04-25T07:07:26;17.45;;;5.25;;
47603;SDS011;33326;51.116;6.900;2023-04-25T07:12:31;18.95;;;5.13;;
47603;SDS011;33326;51.116;6.900;2023-04-25T07:17:34;20.63;;;6.28;;
47603;SDS011;33326;51.116;6.900;2023-04-25T07:22:36;18.00;;;5.78;;
47603;SDS011;33326;51.116;6.900;2023-04-25T07:27:39;22.45;;;6.85;;
47603;SDS011;33326;51.116;6.900;2023-04-25T07:33:02;18.55;;;5.68;;
47603;SDS011;33326;51.116;6.900;2023-04-25T07:38:04;19.98;;;6.53;;
47603;SDS011;33326;51.116;6.900;2023-04-25T07:43:07;16.88;;;5.30;;
47603;SDS011;33326;51.116;6.900;2023-04-25T07:48:20;22.10;;;4.65;;
47603;SDS011;33326;51.116;6.900;2023-04-25T07:53:26;13.95;;;4.55;;
47603;SDS011;33326;51.116;6.900;2023-04-25T07:58:33;15.23;;;4.65;;
47603;SDS011;33326;51.116;6.900;2023-04-25T08:03:39;12.77;;;4.18;;
47603;SDS011;33326;51.116;6.900;2023-04-25T08:08:48;14.03;;;3.83;;
47603;SDS011;33326;51.116;6.900;2023-04-25T08:13:52;18.00;;;3.70;;
47603;SDS011;33326;51.116;6.900;2023-04-25T08:18:57;13.32;;;3.58;;
47603;SDS011;33326;51.116;6.900;2023-04-25T08:24:00;16.38;;;4.00;;
47603;SDS011;33326;51.116;6.900;2023-04-25T08:29:06;15.98;;;4.45;;
47603;SDS011;33326;51.116;6.900;2023-04-25T08:34:13;14.27;;;4.22;;
47603;SDS011;33326;51.116;6.900;2023-04-25T08:39:26;11.90;;;3.72;;
47603;SDS011;33326;51.116;6.900;2023-04-25T08:44:48;18.20;;;3.75;;
47603;SDS011;33326;51.116;6.900;2023-04-25T08:49:53;13.15;;;3.60;;
47603;SDS011;33326;51.116;6.900;2023-04-25T08:54:56;18.15;;;3.70;;
47603;SDS011;33326;51.116;6.900;2023-04-25T09:00:01;11.60;;;3.28;;
47603;SDS011;33326;51.116;6.900;2023-04-25T09:05:13;11.60;;;3.30;;
47603;SDS011;33326;51.116;6.900;2023-04-25T09:10:16;8.70;;;3.60;;
47603;SDS011;33326;51.116;6.900;2023-04-25T09:15:19;11.02;;;3.13;;
47603;SDS011;33326;51.116;6.900;2023-04-25T09:20:42;11.52;;;3.42;;
47603;SDS011;33326;51.116;6.900;2023-04-25T09:25:44;11.05;;;3.40;;
47603;SDS011;33326;51.116;6.900;2023-04-25T09:30:48;11.38;;;2.97;;
47603;SDS011;33326;51.116;6.900;2023-04-25T09:36:04;15.90;;;3.20;;
47603;SDS011;33326;51.116;6.900;2023-04-25T09:41:22;10.73;;;2.85;;
47603;SDS011;33326;51.116;6.900;2023-04-25T09:46:32;7.53;;;2.58;;
47603;SDS011;33326;51.116;6.900;2023-04-25T09:51:37;7.45;;;2.38;;
47603;SDS011;33326;51.116;6.900;2023-04-25T09:56:40;6.60;;;2.28;;
47603;SDS011;33326;51.116;6.900;2023-04-25T10:01:43;10.02;;;2.67;;
47603;SDS011;33326;51.116;6.900;2023-04-25T10:06:58;9.93;;;2.40;;
47603;SDS011;33326;51.116;6.900;2023-04-25T10:12:01;12.52;;;2.90;;
47603;SDS011;33326;51.116;6.900;2023-04-25T10:17:04;9.57;;;2.80;;
47603;SDS011;33326;51.116;6.900;2023-04-25T10:22:08;5.70;;;2.20;;
47603;SDS011;33326;51.116;6.900;2023-04-25T10:27:16;8.30;;;2.13;;
47603;SDS011;33326;51.116;6.900;2023-04-25T10:32:18;7.57;;;2.33;;
47603;SDS011;33326;51.116;6.900;2023-04-25T10:37:21;5.90;;;1.73;;
47603;SDS011;33326;51.116;6.900;2023-04-25T10:42:23;9.63;;;2.50;;
47603;SDS011;33326;51.116;6.900;2023-04-25T10:47:34;5.13;;;1.80;;
47603;SDS011;33326;51.116;6.900;2023-04-25T10:52:39;8.85;;;2.38;;
47603;SDS011;33326;51.116;6.900;2023-04-25T10:57:41;11.68;;;2.70;;
47603;SDS011;33326;51.116;6.900;2023-04-25T11:02:46;6.47;;;2.10;;
47603;SDS011;33326;51.116;6.900;2023-04-25T11:07:51;7.78;;;1.98;;
47603;SDS011;33326;51.116;6.900;2023-04-25T11:12:54;6.50;;;2.30;;
47603;SDS011;33326;51.116;6.900;2023-04-25T11:17:56;10.73;;;2.10;;
47603;SDS011;33326;51.116;6.900;2023-04-25T11:23:00;5.88;;;1.85;;
47603;SDS011;33326;51.116;6.900;2023-04-25T11:28:02;6.78;;;1.67;;
47603;SDS011;33326;51.116;6.900;2023-04-25T11:33:04;6.22;;;1.48;;
47603;SDS011;33326;51.116;6.900;2023-04-25T11:38:07;6.90;;;1.80;;
47603;SDS011;33326;51.116;6.900;2023-04-25T11:43:09;5.72;;;1.60;;
47603;SDS011;33326;51.116;6.900;2023-04-25T11:48:11;5.20;;;2.00;;
47603;SDS011;33326;51.116;6.900;2023-04-25T11:53:14;9.68;;;2.00;;
47603;SDS011;33326;51.116;6.900;2023-04-25T11:58:19;7.90;;;1.90;;
47603;SDS011;33326;51.116;6.900;2023-04-25T12:03:21;5.70;;;1.90;;
47603;SDS011;33326;51.116;6.900;2023-04-25T12:08:27;9.18;;;2.13;;
47603;SDS011;33326;51.116;6.900;2023-04-25T12:13:29;8.05;;;2.00;;
47603;SDS011;33326;51.116;6.900;2023-04-25T12:18:33;8.65;;;2.03;;
47603;SDS011;33326;51.116;6.900;2023-04-25T12:23:39;6.55;;;1.95;;
47603;SDS011;33326;51.116;6.900;2023-04-25T12:28:45;9.48;;;2.13;;
47603;SDS011;33326;51.116;6.900;2023-04-25T12:33:48;9.43;;;1.92;;
47603;SDS011;33326;51.116;6.900;2023-04-25T12:38:51;8.55;;;2.25;;
47603;SDS011;33326;51.116;6.900;2023-04-25T12:43:53;8.73;;;2.35;;
47603;SDS011;33326;51.116;6.900;2023-04-25T12:48:55;10.10;;;2.72;;
47603;SDS011;33326;51.116;6.900;2023-04-25T12:53:58;10.30;;;2.42;;
47603;SDS011;33326;51.116;6.900;2023-04-25T12:59:00;6.90;;;2.50;;
47603;SDS011;33326;51.116;6.900;2023-04-25T13:04:03;10.50;;;3.92;;
47603;SDS011;33326;51.116;6.900;2023-04-25T13:09:06;16.20;;;3.70;;
47603;SDS011;33326;51.116;6.900;2023-04-25T13:14:08;9.60;;;3.40;;
47603;SDS011;33326;51.116;6.900;2023-04-25T13:19:10;8.68;;;3.60;;
47603;SDS011;33326;51.116;6.900;2023-04-25T13:24:14;9.32;;;3.00;;
47603;SDS011;33326;51.116;6.900;2023-04-25T13:29:16;9.65;;;2.80;;
47603;SDS011;33326;51.116;6.900;2023-04-25T13:34:17;6.30;;;2.65;;
47603;SDS011;33326;51.116;6.900;2023-04-25T13:39:20;10.50;;;3.10;;
47603;SDS011;33326;51.116;6.900;2023-04-25T13:44:22;4.93;;;2.08;;
47603;SDS011;33326;51.116;6.900;2023-04-25T13:49:24;7.15;;;2.42;;
47603;SDS011;33326;51.116;6.900;2023-04-25T13:54:27;5.25;;;1.75;;
47603;SDS011;33326;51.116;6.900;2023-04-25T13:59:29;5.93;;;2.33;;
47603;SDS011;33326;51.116;6.900;2023-04-25T14:04:32;7.28;;;2.05;;
47603;SDS011;33326;51.116;6.900;2023-04-25T14:09:35;4.93;;;1.80;;
47603;SDS011;33326;51.116;6.900;2023-04-25T14:14:37;3.78;;;1.50;;
47603;SDS011;33326;51.116;6.900;2023-04-25T14:19:38;4.35;;;1.33;;
47603;SDS011;33326;51.116;6.900;2023-04-25T14:24:46;3.42;;;1.10;;
47603;SDS011;33326;51.116;6.900;2023-04-25T14:29:48;5.20;;;1.38;;
47603;SDS011;33326;51.116;6.900;2023-04-25T14:34:50;6.70;;;1.50;;
47603;SDS011;33326;51.116;6.900;2023-04-25T14:39:54;6.10;;;2.20;;
47603;SDS011;33326;51.116;6.900;2023-04-25T14:44:56;4.47;;;1.73;;
47603;SDS011;33326;51.116;6.900;2023-04-25T14:49:58;5.93;;;2.10;;
47603;SDS011;33326;51.116;6.900;2023-04-25T14:55:01;4.10;;;1.60;;
47603;SDS011;33326;51.116;6.900;2023-04-25T15:00:05;5.97;;;1.75;;
47603;SDS011;33326;51.116;6.900;2023-04-25T15:05:09;6.50;;;2.33;;
47603;SDS011;33326;51.116;6.900;2023-04-25T15:10:12;7.20;;;1.83;;
47603;SDS011;33326;51.116;6.900;2023-04-25T15:15:16;7.88;;;1.77;;
47603;SDS011;33326;51.116;6.900;2023-04-25T15:20:18;4.57;;;1.73;;
47603;SDS011;33326;51.116;6.900;2023-04-25T15:25:21;5.22;;;1.92;;
47603;SDS011;33326;51.116;6.900;2023-04-25T15:30:23;8.45;;;2.00;;
47603;SDS011;33326;51.116;6.900;2023-04-25T15:35:35;5.57;;;1.90;;
47603;SDS011;33326;51.116;6.900;2023-04-25T15:40:38;10.07;;;2.20;;
47603;SDS011;33326;51.116;6.900;2023-04-25T15:45:41;7.53;;;1.88;;
47603;SDS011;33326;51.116;6.900;2023-04-25T15:50:44;4.63;;;1.85;;
47603;SDS011;33326;51.116;6.900;2023-04-25T15:55:48;7.07;;;1.83;;
47603;SDS011;33326;51.116;6.900;2023-04-25T16:00:50;4.13;;;1.70;;
47603;SDS011;33326;51.116;6.900;2023-04-25T16:05:53;6.75;;;1.83;;
47603;SDS011;33326;51.116;6.900;2023-04-25T16:10:56;4.35;;;1.88;;
47603;SDS011;33326;51.116;6.900;2023-04-25T16:15:58;9.05;;;2.20;;
47603;SDS011;33326;51.116;6.900;2023-04-25T16:21:01;4.68;;;1.30;;
47603;SDS011;33326;51.116;6.900;2023-04-25T16:26:04;6.97;;;2.05;;
47603;SDS011;33326;51.116;6.900;2023-04-25T16:31:08;4.55;;;1.45;;
47603;SDS011;33326;51.116;6.900;2023-04-25T16:36:10;8.00;;;2.13;;
47603;SDS011;33326;51.116;6.900;2023-04-25T16:41:13;7.07;;;1.52;;
47603;SDS011;33326;51.116;6.900;2023-04-25T16:46:16;4.90;;;1.35;;
47603;SDS011;33326;51.116;6.900;2023-04-25T16:51:18;6.07;;;1.55;;
47603;SDS011;33326;51.116;6.900;2023-04-25T16:56:22;5.60;;;1.73;;
47603;SDS011;33326;51.116;6.900;2023-04-25T17:01:24;3.70;;;1.60;;
47603;SDS011;33326;51.116;6.900;2023-04-25T17:06:26;5.70;;;1.70;;
47603;SDS011;33326;51.116;6.900;2023-04-25T17:11:29;7.90;;;1.83;;
47603;SDS011;33326;51.116;6.900;2023-04-25T17:16:34;6.25;;;1.80;;
47603;SDS011;33326;51.116;6.900;2023-04-25T17:21:37;7.80;;;1.80;;
47603;SDS011;33326;51.116;6.900;2023-04-25T17:26:40;5.95;;;1.75;;
47603;SDS011;33326;51.116;6.900;2023-04-25T17:31:42;5.28;;;1.65;;
47603;SDS011;33326;51.116;6.900;2023-04-25T17:36:44;5.53;;;1.42;;
47603;SDS011;33326;51.116;6.900;2023-04-25T17:41:48;6.35;;;1.40;;
47603;SDS011;33326;51.116;6.900;2023-04-25T17:46:50;5.88;;;1.15;;
47603;SDS011;33326;51.116;6.900;2023-04-25T17:51:52;4.68;;;1.55;;
47603;SDS011;33326;51.116;6.900;2023-04-25T17:56:56;4.00;;;1.20;;
47603;SDS011;33326;51.116;6.900;2023-04-25T18:01:57;4.90;;;1.92;;
47603;SDS011;33326;51.116;6.900;2023-04-25T18:07:00;4.85;;;1.67;;
47603;SDS011;33326;51.116;6.900;2023-04-25T18:12:03;4.47;;;1.50;;
47603;SDS011;33326;51.116;6.900;2023-04-25T18:17:07;4.10;;;1.80;;
47603;SDS011;33326;51.116;6.900;2023-04-25T18:22:11;7.75;;;1.75;;
47603;SDS011;33326;51.116;6.900;2023-04-25T18:27:14;10.18;;;2.20;;
47603;SDS011;33326;51.116;6.900;2023-04-25T18:32:16;4.93;;;1.65;;
47603;SDS011;33326;51.116;6.900;2023-04-25T18:37:18;7.20;;;1.90;;
47603;SDS011;33326;51.116;6.900;2023-04-25T18:42:22;6.90;;;2.00;;
47603;SDS011;33326;51.116;6.900;2023-04-25T18:47:24;4.60;;;1.30;;
47603;SDS011;33326;51.116;6.900;2023-04-25T18:52:26;7.20;;;1.70;;
47603;SDS011;33326;51.116;6.900;2023-04-25T18:57:29;4.80;;;1.58;;
47603;SDS011;33326;51.116;6.900;2023-04-25T19:02:32;9.38;;;1.48;;
47603;SDS011;33326;51.116;6.900;2023-04-25T19:07:35;4.10;;;1.48;;
47603;SDS011;33326;51.116;6.900;2023-04-25T19:12:38;8.70;;;1.77;;
47603;SDS011;33326;51.116;6.900;2023-04-25T19:17:42;5.00;;;1.70;;
47603;SDS011;33326;51.116;6.900;2023-04-25T19:22:43;3.17;;;1.30;;
47603;SDS011;33326;51.116;6.900;2023-04-25T19:27:47;4.95;;;1.63;;
47603;SDS011;33326;51.116;6.900;2023-04-25T19:32:49;6.95;;;2.15;;
47603;SDS011;33326;51.116;6.900;2023-04-25T19:37:51;5.78;;;2.03;;
47603;SDS011;33326;51.116;6.900;2023-04-25T19:42:54;8.18;;;1.98;;
47603;SDS011;33326;51.116;6.900;2023-04-25T19:47:56;8.60;;;2.10;;
47603;SDS011;33326;51.116;6.900;2023-04-25T19:52:58;8.30;;;1.95;;
47603;SDS011;33326;51.116;6.900;2023-04-25T19:58:02;10.60;;;2.20;;
47603;SDS011;33326;51.116;6.900;2023-04-25T20:03:07;8.52;;;2.15;;
47603;SDS011;33326;51.116;6.900;2023-04-25T20:08:09;6.78;;;2.38;;
47603;SDS011;33326;51.116;6.900;2023-04-25T20:13:12;6.80;;;2.55;;
47603;SDS011;33326;51.116;6.900;2023-04-25T20:18:15;9.77;;;2.30;;
47603;SDS011;33326;51.116;6.900;2023-04-25T20:23:17;8.55;;;2.15;;
47603;SDS011;33326;51.116;6.900;2023-04-25T20:28:20;7.90;;;2.85;;
47603;SDS011;33326;51.116;6.900;2023-04-25T20:33:22;9.73;;;2.97;;
47603;SDS011;33326;51.116;6.900;2023-04-25T20:38:24;9.80;;;2.80;;
47603;SDS011;33326;51.116;6.900;2023-04-25T20:43:27;11.77;;;3.25;;
47603;SDS011;33326;51.116;6.900;2023-04-25T20:48:30;10.30;;;3.10;;
47603;SDS011;33326;51.116;6.900;2023-04-25T20:53:32;8.77;;;2.72;;
47603;SDS011;33326;51.116;6.900;2023-04-25T20:58:35;11.88;;;2.85;;
47603;SDS011;33326;51.116;6.900;2023-04-25T21:03:37;10.60;;;2.38;;
47603;SDS011;33326;51.116;6.900;2023-04-25T21:08:39;8.07;;;2.65;;
47603;SDS011;33326;51.116;6.900;2023-04-25T21:13:42;7.70;;;2.83;;
47603;SDS011;33326;51.116;6.900;2023-04-25T21:18:45;9.23;;;3.00;;
47603;SDS011;33326;51.116;6.900;2023-04-25T21:23:46;8.88;;;2.95;;
47603;SDS011;33326;51.116;6.900;2023-04-25T21:28:50;10.73;;;2.80;;
47603;SDS011;33326;51.116;6.900;2023-04-25T21:33:52;9.90;;;3.13;;
47603;SDS011;33326;51.116;6.900;2023-04-25T21:38:54;10.55;;;2.63;;
47603;SDS011;33326;51.116;6.900;2023-04-25T21:43:57;7.25;;;2.75;;
47603;SDS011;33326;51.116;6.900;2023-04-25T21:49:00;9.35;;;2.95;;
47603;SDS011;33326;51.116;6.900;2023-04-25T21:54:02;6.55;;;2.50;;
47603;SDS011;33326;51.116;6.900;2023-04-25T21:59:06;8.63;;;2.67;;
47603;SDS011;33326;51.116;6.900;2023-04-25T22:04:09;7.45;;;2.67;;
47603;SDS011;33326;51.116;6.900;2023-04-25T22:09:11;8.45;;;2.63;;
47603;SDS011;33326;51.116;6.900;2023-04-25T22:14:15;7.28;;;2.83;;
47603;SDS011;33326;51.116;6.900;2023-04-25T22:19:16;7.80;;;2.85;;
47603;SDS011;33326;51.116;6.900;2023-04-25T22:24:19;9.60;;;2.92;;
47603;SDS011;33326;51.116;6.900;2023-04-25T22:29:22;10.45;;;3.42;;
47603;SDS011;33326;51.116;6.900;2023-04-25T22:34:24;6.55;;;3.10;;
47603;SDS011;33326;51.116;6.900;2023-04-25T22:39:26;5.07;;;2.72;;
47603;SDS011;33326;51.116;6.900;2023-04-25T22:44:29;9.43;;;3.20;;
47603;SDS011;33326;51.116;6.900;2023-04-25T22:49:31;10.30;;;3.63;;
47603;SDS011;33326;51.116;6.900;2023-04-25T22:54:33;5.38;;;2.88;;
47603;SDS011;33326;51.116;6.900;2023-04-25T22:59:36;7.97;;;3.05;;
47603;SDS011;33326;51.116;6.900;2023-04-25T23:04:38;10.68;;;3.72;;
47603;SDS011;33326;51.116;6.900;2023-04-25T23:09:40;11.75;;;3.58;;
47603;SDS011;33326;51.116;6.900;2023-04-25T23:14:48;8.75;;;3.22;;
47603;SDS011;33326;51.116;6.900;2023-04-25T23:19:51;9.13;;;3.53;;
47603;SDS011;33326;51.116;6.900;2023-04-25T23:24:52;10.50;;;3.33;;
47603;SDS011;33326;51.116;6.900;2023-04-25T23:29:56;22.63;;;7.80;;
47603;SDS011;33326;51.116;6.900;2023-04-25T23:34:58;17.00;;;6.55;;
47603;SDS011;33326;51.116;6.900;2023-04-25T23:40:00;21.25;;;7.38;;
47603;SDS011;33326;51.116;6.900;2023-04-25T23:45:08;12.35;;;4.72;;
47603;SDS011;33326;51.116;6.900;2023-04-25T23:50:11;11.45;;;4.32;;
47603;SDS011;33326;51.116;6.900;2023-04-25T23:55:14;13.30;;;3.67;;
